createdAt,value
2022-12-12T00:00:01.146Z,16.77
2022-12-12T00:02:31.893Z,19.40
2022-12-12T00:05:02.792Z,19.67
2022-12-12T00:07:33.600Z,19.17
2022-12-12T00:10:05.094Z,20.20
2022-12-12T00:12:35.741Z,19.57
2022-12-12T00:15:08.312Z,21.17
2022-12-12T00:17:38.973Z,20.53
2022-12-12T00:20:10.645Z,19.67
2022-12-12T00:22:41.411Z,19.20
2022-12-12T00:25:13.302Z,19.30
2022-12-12T00:27:44.152Z,19.17
2022-12-12T00:30:15.707Z,19.40
2022-12-12T00:32:46.388Z,19.30
2022-12-12T00:35:17.197Z,17.17
2022-12-12T00:37:47.884Z,19.10
2022-12-12T00:40:18.718Z,17.90
2022-12-12T00:42:49.341Z,17.60
2022-12-12T00:45:20.335Z,18.27
2022-12-12T00:47:51.134Z,18.93
2022-12-12T00:50:21.834Z,19.30
2022-12-12T00:52:52.519Z,19.80
2022-12-12T00:55:23.817Z,18.13
2022-12-12T00:57:54.563Z,17.60
2022-12-12T01:00:26.008Z,18.20
2022-12-12T01:02:58.704Z,18.27
2022-12-12T01:05:30.148Z,17.40
2022-12-12T01:08:00.958Z,17.23
2022-12-12T01:10:31.606Z,17.83
2022-12-12T01:13:02.339Z,19.60
2022-12-12T01:15:33.790Z,18.77
2022-12-12T01:18:04.496Z,18.17
2022-12-12T01:20:35.188Z,17.77
2022-12-12T01:23:05.895Z,17.97
2022-12-12T01:25:36.541Z,17.70
2022-12-12T01:28:07.471Z,17.67
2022-12-12T01:30:38.796Z,16.67
2022-12-12T01:33:09.837Z,17.67
2022-12-12T01:35:40.575Z,18.57
2022-12-12T01:38:11.561Z,17.50
2022-12-12T01:40:42.261Z,18.67
2022-12-12T01:43:15.101Z,15.77
2022-12-12T01:46:35.243Z,16.83
2022-12-12T01:49:10.474Z,16.87
2022-12-12T01:51:43.070Z,17.47
2022-12-12T01:54:17.206Z,18.53
2022-12-12T01:56:49.408Z,16.10
2022-12-12T01:59:22.878Z,16.63
2022-12-12T02:01:54.388Z,18.10
2022-12-12T02:04:28.190Z,16.53
2022-12-12T02:06:59.547Z,16.97
2022-12-12T02:09:30.273Z,16.33
2022-12-12T02:12:01.347Z,17.23
2022-12-12T02:14:35.504Z,17.50
2022-12-12T02:17:40.196Z,18.07
2022-12-12T02:20:31.274Z,17.97
2022-12-12T02:23:44.756Z,18.50
2022-12-12T02:27:04.635Z,16.77
2022-12-12T02:30:11.704Z,15.47
2022-12-12T02:33:06.871Z,16.47
2022-12-12T02:35:45.253Z,17.57
2022-12-12T02:38:22.247Z,18.23
2022-12-12T02:40:56.343Z,16.30
2022-12-12T02:43:31.984Z,17.13
2022-12-12T02:46:05.955Z,17.60
2022-12-12T02:48:40.109Z,17.90
2022-12-12T02:51:14.063Z,17.53
2022-12-12T02:53:44.638Z,17.23
2022-12-12T02:56:48.471Z,18.13
2022-12-12T02:59:26.422Z,15.73
2022-12-12T03:05:40.107Z,16.73
2022-12-12T03:08:15.511Z,16.00
2022-12-12T03:10:51.644Z,16.43
2022-12-12T03:13:27.179Z,17.77
2022-12-12T03:16:02.171Z,16.30
2022-12-12T03:18:36.383Z,16.83
2022-12-12T03:21:10.256Z,15.90
2022-12-12T03:23:44.195Z,15.47
2022-12-12T03:26:17.899Z,14.97
2022-12-12T03:28:52.164Z,16.53
2022-12-12T03:31:26.654Z,16.80
2022-12-12T03:34:00.431Z,15.17
2022-12-12T03:36:35.173Z,16.67
2022-12-12T03:39:08.725Z,15.90
2022-12-12T03:41:42.550Z,15.73
2022-12-12T03:44:16.161Z,15.60
2022-12-12T03:46:50.116Z,15.00
2022-12-12T03:49:24.161Z,15.73
2022-12-12T03:51:57.799Z,15.63
2022-12-12T03:54:31.342Z,15.30
2022-12-12T03:57:04.804Z,15.03
2022-12-12T03:59:38.340Z,16.10
2022-12-12T04:02:14.365Z,15.77
2022-12-12T04:04:55.843Z,13.87
2022-12-12T04:07:29.082Z,16.00
2022-12-12T04:10:17.521Z,17.10
2022-12-12T04:15:53.991Z,16.17
2022-12-12T04:18:39.356Z,15.70
2022-12-12T04:21:41.257Z,15.13
2022-12-12T04:24:19.027Z,15.37
2022-12-12T04:26:55.155Z,16.57
2022-12-12T04:29:40.264Z,14.47
2022-12-12T04:32:18.653Z,15.57
2022-12-12T04:34:52.415Z,14.90
2022-12-12T04:37:26.545Z,15.60
2022-12-12T04:40:00.243Z,16.07
2022-12-12T04:42:34.212Z,15.30
2022-12-12T04:45:08.325Z,14.77
2022-12-12T04:47:40.939Z,15.80
2022-12-12T04:50:13.547Z,15.40
2022-12-12T04:52:46.828Z,15.53
2022-12-12T04:55:21.217Z,16.33
2022-12-12T04:57:55.010Z,15.77
2022-12-12T05:00:28.123Z,15.00
2022-12-12T05:03:02.432Z,14.63
2022-12-12T05:05:36.704Z,16.27
2022-12-12T05:08:10.620Z,16.10
2022-12-12T05:10:46.548Z,16.67
2022-12-12T05:13:19.970Z,14.07
2022-12-12T05:15:53.960Z,15.77
2022-12-12T05:18:25.647Z,13.57
2022-12-12T05:20:56.603Z,15.13
2022-12-12T05:23:33.016Z,14.77
2022-12-12T05:25:59.668Z,15.57
2022-12-12T05:28:30.295Z,13.97
2022-12-12T05:31:00.989Z,14.27
2022-12-12T05:33:31.881Z,14.57
2022-12-12T05:36:03.568Z,14.43
2022-12-12T05:38:34.274Z,14.37
2022-12-12T05:43:43.354Z,15.70
2022-12-12T05:46:14.147Z,14.30
2022-12-12T05:48:47.029Z,14.80
2022-12-12T05:51:18.540Z,15.20
2022-12-12T05:53:49.355Z,14.43
2022-12-12T05:56:20.111Z,14.37
2022-12-12T05:58:50.751Z,14.93
2022-12-12T06:01:21.566Z,13.80
2022-12-12T06:03:52.178Z,13.73
2022-12-12T06:06:22.882Z,16.20
2022-12-12T06:11:32.846Z,16.70
2022-12-12T06:14:03.693Z,13.93
2022-12-12T06:16:34.342Z,14.97
2022-12-12T06:19:05.229Z,15.30
2022-12-12T06:21:36.128Z,14.00
2022-12-12T06:24:09.427Z,14.97
2022-12-12T06:26:40.140Z,14.70
2022-12-12T06:29:10.733Z,19.90
2022-12-12T06:31:41.470Z,17.37
2022-12-12T06:34:12.279Z,17.00
2022-12-12T06:36:43.021Z,17.77
2022-12-12T06:39:14.109Z,18.97
2022-12-12T06:41:45.137Z,16.20
2022-12-12T06:44:17.786Z,16.47
2022-12-12T06:46:48.122Z,15.90
2022-12-12T06:49:18.754Z,17.77
2022-12-12T06:51:49.594Z,16.63
2022-12-12T06:54:20.899Z,15.80
2022-12-12T06:56:51.876Z,17.17
2022-12-12T06:59:22.612Z,16.70
2022-12-12T07:01:54.753Z,16.20
2022-12-12T07:04:26.459Z,17.43
2022-12-12T07:06:57.086Z,16.37
2022-12-12T07:09:28.475Z,16.53
2022-12-12T07:11:59.252Z,14.50
2022-12-12T07:14:29.968Z,15.33
2022-12-12T07:17:00.897Z,15.07
2022-12-12T07:19:31.581Z,14.17
2022-12-12T07:22:09.024Z,15.30
2022-12-12T07:24:36.373Z,15.33
2022-12-12T07:27:08.029Z,17.03
2022-12-12T07:29:38.833Z,16.53
2022-12-12T07:32:09.429Z,16.63
2022-12-12T07:34:40.207Z,21.40
2022-12-12T07:37:10.855Z,15.77
2022-12-12T07:39:41.896Z,16.83
2022-12-12T07:42:12.465Z,16.67
2022-12-12T07:44:43.400Z,19.83
2022-12-12T07:47:13.983Z,17.73
2022-12-12T07:49:44.663Z,19.03
2022-12-12T07:52:15.239Z,15.13
2022-12-12T07:54:45.998Z,17.00
2022-12-12T07:57:17.086Z,16.57
2022-12-12T07:59:47.777Z,17.73
2022-12-12T08:02:18.445Z,16.50
2022-12-12T08:04:49.246Z,17.80
2022-12-12T08:07:19.931Z,16.13
2022-12-12T08:09:50.606Z,17.20
2022-12-12T08:12:21.590Z,16.53
2022-12-12T08:14:52.459Z,17.90
2022-12-12T08:17:23.276Z,17.93
2022-12-12T08:19:53.913Z,17.20
2022-12-12T08:22:24.480Z,16.33
2022-12-12T08:24:55.324Z,16.37
2022-12-12T08:27:25.912Z,18.13
2022-12-12T08:29:57.505Z,17.63
2022-12-12T08:32:28.311Z,17.20
2022-12-12T08:34:59.758Z,17.10
2022-12-12T08:37:30.352Z,17.73
2022-12-12T08:40:01.194Z,17.63
2022-12-12T08:42:31.919Z,17.70
2022-12-12T08:45:02.591Z,17.33
2022-12-12T08:47:33.418Z,18.43
2022-12-12T08:50:04.049Z,17.83
2022-12-12T08:52:34.650Z,17.87
2022-12-12T08:55:05.816Z,16.73
2022-12-12T08:57:36.531Z,18.20
2022-12-12T09:00:09.866Z,17.57
2022-12-12T09:02:40.611Z,19.57
2022-12-12T09:05:12.269Z,18.83
2022-12-12T09:07:43.249Z,20.87
2022-12-12T09:10:14.003Z,21.80
2022-12-12T09:12:44.790Z,23.80
2022-12-12T09:15:16.129Z,22.47
2022-12-12T09:17:47.549Z,23.13
2022-12-12T09:20:18.315Z,24.63
2022-12-12T09:22:50.135Z,22.33
2022-12-12T09:25:21.950Z,22.07
2022-12-12T09:27:52.711Z,22.77
2022-12-12T09:30:23.546Z,22.53
2022-12-12T09:32:54.600Z,21.90
2022-12-12T09:35:25.308Z,22.73
2022-12-12T09:37:56.838Z,22.77
2022-12-12T09:40:30.493Z,21.60
2022-12-12T09:43:01.826Z,21.77
2022-12-12T09:45:34.658Z,22.80
2022-12-12T09:48:07.429Z,22.13
2022-12-12T09:50:41.674Z,21.87
2022-12-12T09:53:16.062Z,20.97
2022-12-12T09:55:50.415Z,21.57
2022-12-12T09:58:24.556Z,22.77
2022-12-12T10:00:59.113Z,20.77
2022-12-12T10:03:33.801Z,22.07
2022-12-12T10:08:44.831Z,21.77
2022-12-12T10:11:37.239Z,22.77
2022-12-12T10:14:11.474Z,22.37
2022-12-12T10:16:43.692Z,22.40
2022-12-12T10:19:18.005Z,22.30
2022-12-12T10:21:50.912Z,21.40
2022-12-12T10:24:28.539Z,22.43
2022-12-12T10:27:02.240Z,21.63
2022-12-12T10:29:39.660Z,21.57
2022-12-12T10:32:09.812Z,21.20
2022-12-12T10:34:48.385Z,21.17
2022-12-12T10:37:30.350Z,20.77
2022-12-12T10:40:06.751Z,20.47
2022-12-12T10:42:40.939Z,22.10
2022-12-12T10:48:20.816Z,19.13
2022-12-12T10:50:54.257Z,20.57
2022-12-12T10:53:25.695Z,20.03
2022-12-12T10:55:59.622Z,22.37
2022-12-12T10:58:32.519Z,20.70
2022-12-12T11:01:05.734Z,21.13
2022-12-12T11:03:39.786Z,21.23
2022-12-12T11:06:14.093Z,19.93
2022-12-12T11:08:54.822Z,20.13
2022-12-12T11:11:26.804Z,20.37
2022-12-12T11:14:00.551Z,21.13
2022-12-12T11:16:33.881Z,20.57
2022-12-12T11:19:08.314Z,19.77
2022-12-12T11:21:39.723Z,19.80
2022-12-12T11:27:03.100Z,17.03
2022-12-12T11:29:38.568Z,18.63
2022-12-12T11:32:14.801Z,18.73
2022-12-12T11:34:49.521Z,17.60
2022-12-12T11:37:22.396Z,16.40
2022-12-12T11:39:55.294Z,15.90
2022-12-12T11:42:28.797Z,15.70
2022-12-12T11:45:05.882Z,16.07
2022-12-12T11:47:42.297Z,15.57
2022-12-12T11:50:22.463Z,16.27
2022-12-12T11:52:57.205Z,17.47
2022-12-12T11:55:33.459Z,15.97
2022-12-12T11:58:16.114Z,16.33
2022-12-12T12:00:52.318Z,15.93
2022-12-12T12:03:41.846Z,15.97
2022-12-12T12:06:34.930Z,15.50
2022-12-12T12:09:22.507Z,15.40
2022-12-12T12:11:58.723Z,15.33
2022-12-12T12:14:44.936Z,16.37
2022-12-12T12:17:19.388Z,16.07
2022-12-12T12:19:52.970Z,15.90
2022-12-12T12:22:28.816Z,15.20
2022-12-12T12:25:18.409Z,16.10
2022-12-12T12:30:35.602Z,14.83
2022-12-12T12:36:23.517Z,15.17
2022-12-12T12:39:00.117Z,14.63
2022-12-12T12:41:39.081Z,14.33
2022-12-12T12:44:39.631Z,15.47
2022-12-12T12:47:16.029Z,15.30
2022-12-12T12:49:50.108Z,14.90
2022-12-12T12:55:03.111Z,14.70
2022-12-12T12:57:36.670Z,15.67
2022-12-12T13:00:12.198Z,14.13
2022-12-12T13:02:50.107Z,16.00
2022-12-12T13:05:24.582Z,14.50
2022-12-12T13:08:00.552Z,16.90
2022-12-12T13:10:33.751Z,13.87
2022-12-12T13:13:09.325Z,14.70
2022-12-12T13:15:44.322Z,14.87
2022-12-12T13:18:45.237Z,14.50
2022-12-12T13:21:11.298Z,14.77
2022-12-12T13:23:51.120Z,13.97
2022-12-12T13:26:25.201Z,15.23
2022-12-12T13:29:00.302Z,19.23
2022-12-12T13:31:54.326Z,15.37
2022-12-12T13:37:07.779Z,16.77
2022-12-12T13:39:40.094Z,14.63
2022-12-12T13:42:12.350Z,14.03
2022-12-12T13:44:45.313Z,15.20
2022-12-12T13:47:36.171Z,15.70
2022-12-12T13:50:16.494Z,14.57
2022-12-12T13:52:48.986Z,15.10
2022-12-12T13:55:38.666Z,15.93
2022-12-12T13:58:35.293Z,16.43
2022-12-12T14:01:48.157Z,15.37
2022-12-12T14:04:29.670Z,15.47
2022-12-12T14:07:06.315Z,15.77
2022-12-12T14:09:48.221Z,15.13
2022-12-12T14:12:17.911Z,16.47
2022-12-12T14:14:54.472Z,15.90
2022-12-12T14:17:27.928Z,15.50
2022-12-12T14:20:00.876Z,15.27
2022-12-12T14:22:34.074Z,15.67
2022-12-12T14:25:13.291Z,14.67
2022-12-12T14:28:22.351Z,14.53
2022-12-12T14:31:14.396Z,14.33
2022-12-12T14:34:11.284Z,15.90
2022-12-12T14:37:10.690Z,16.03
2022-12-12T14:40:14.852Z,16.97
2022-12-12T14:43:20.177Z,13.93
2022-12-12T14:45:38.413Z,14.73
2022-12-12T14:48:22.419Z,14.17
2022-12-12T14:50:56.509Z,14.47
2022-12-12T14:53:29.711Z,13.90
2022-12-12T14:56:03.448Z,14.23
2022-12-12T15:01:16.418Z,15.87
2022-12-12T15:03:49.981Z,14.93
2022-12-12T15:06:29.548Z,14.47
2022-12-12T15:09:09.985Z,14.67
2022-12-12T15:11:41.087Z,15.63
2022-12-12T15:14:22.179Z,15.03
2022-12-12T15:16:56.851Z,16.23
2022-12-12T15:19:31.363Z,15.57
2022-12-12T15:22:02.087Z,15.93
2022-12-12T15:24:39.190Z,16.30
2022-12-12T15:27:11.603Z,16.07
2022-12-12T15:29:43.887Z,14.80
2022-12-12T15:32:19.685Z,15.47
2022-12-12T15:34:52.742Z,15.27
2022-12-12T15:37:29.268Z,15.60
2022-12-12T15:40:03.346Z,16.60
2022-12-12T15:42:34.557Z,16.73
2022-12-12T15:45:06.928Z,16.67
2022-12-12T15:47:37.648Z,16.03
2022-12-12T15:50:16.326Z,15.60
2022-12-12T15:52:48.230Z,16.00
2022-12-12T15:55:25.049Z,15.00
2022-12-12T15:57:56.152Z,13.63
2022-12-12T16:00:37.610Z,14.87
2022-12-12T16:03:24.077Z,18.63
2022-12-12T16:06:08.044Z,20.60
2022-12-12T16:08:48.838Z,18.87
2022-12-12T16:11:45.668Z,16.67
2022-12-12T16:14:39.585Z,17.97
2022-12-12T16:17:08.130Z,17.77
2022-12-12T16:19:45.830Z,16.37
2022-12-12T16:22:25.036Z,18.13
2022-12-12T16:24:57.871Z,17.77
2022-12-12T16:27:28.668Z,18.20
2022-12-12T16:29:59.284Z,21.83
2022-12-12T16:32:30.063Z,18.97
2022-12-12T16:35:00.808Z,19.93
2022-12-12T16:37:31.577Z,17.40
2022-12-12T16:40:02.352Z,17.37
2022-12-12T16:42:33.187Z,15.43
2022-12-12T16:45:04.115Z,17.47
2022-12-12T16:47:34.747Z,15.23
2022-12-12T16:50:08.810Z,14.57
2022-12-12T16:52:39.649Z,14.83
2022-12-12T16:55:16.771Z,15.17
2022-12-12T16:57:47.619Z,16.37
2022-12-12T17:00:19.909Z,17.37
2022-12-12T17:02:50.884Z,18.23
2022-12-12T17:05:24.738Z,15.93
2022-12-12T17:07:56.299Z,18.50
2022-12-12T17:10:29.451Z,16.13
2022-12-12T17:13:00.509Z,16.60
2022-12-12T17:15:32.965Z,16.43
2022-12-12T17:18:05.060Z,15.87
2022-12-12T17:20:37.437Z,20.13
2022-12-12T17:23:27.566Z,19.40
2022-12-12T17:26:04.103Z,19.33
2022-12-12T17:28:31.098Z,14.80
2022-12-12T17:31:02.236Z,16.17
2022-12-12T17:33:32.975Z,20.77
2022-12-12T17:36:06.518Z,17.53
2022-12-12T17:38:37.424Z,18.50
2022-12-12T17:41:09.516Z,18.30
2022-12-12T17:43:42.432Z,22.40
2022-12-12T17:46:15.744Z,18.13
2022-12-12T17:48:48.388Z,17.63
2022-12-12T17:51:21.297Z,19.57
2022-12-12T17:53:53.566Z,20.03
2022-12-12T17:56:26.670Z,18.60
2022-12-12T17:58:57.359Z,18.70
2022-12-12T18:01:31.850Z,20.40
2022-12-12T18:04:05.029Z,18.87
2022-12-12T18:06:36.901Z,19.37
2022-12-12T18:09:07.922Z,19.23
2022-12-12T18:11:39.152Z,19.13
2022-12-12T18:14:15.537Z,17.07
2022-12-12T18:16:48.785Z,19.03
2022-12-12T18:19:19.709Z,18.43
2022-12-12T18:22:00.701Z,18.83
2022-12-12T18:24:25.018Z,18.17
2022-12-12T18:26:57.141Z,18.77
2022-12-12T18:29:29.714Z,19.00
2022-12-12T18:32:00.468Z,19.57
2022-12-12T18:34:31.229Z,20.40
2022-12-12T18:37:02.003Z,21.10
2022-12-12T18:39:32.830Z,19.27
2022-12-12T18:42:03.469Z,20.60
2022-12-12T18:44:34.520Z,20.67
2022-12-12T18:47:05.166Z,20.43
2022-12-12T18:49:36.302Z,20.50
2022-12-12T18:52:07.567Z,21.63
2022-12-12T18:54:38.821Z,18.87
2022-12-12T18:57:09.530Z,20.93
2022-12-12T18:59:41.625Z,20.60
2022-12-12T19:02:15.256Z,20.07
2022-12-12T19:04:47.330Z,21.60
2022-12-12T19:07:18.808Z,21.47
2022-12-12T19:09:49.634Z,21.07
2022-12-12T19:12:20.279Z,20.17
2022-12-12T19:17:26.207Z,21.20
2022-12-12T19:19:56.281Z,21.10
2022-12-12T19:24:59.587Z,21.90
2022-12-12T19:27:31.844Z,21.77
2022-12-12T19:30:02.445Z,22.70
2022-12-12T19:32:33.127Z,21.77
2022-12-12T19:35:05.336Z,21.57
2022-12-12T19:37:37.487Z,19.93
2022-12-12T19:40:11.689Z,21.60
2022-12-12T19:42:42.942Z,18.60
2022-12-12T19:45:13.919Z,20.60
2022-12-12T19:47:44.632Z,20.37
2022-12-12T19:50:15.799Z,21.93
2022-12-12T19:52:47.575Z,20.37
2022-12-12T19:55:18.610Z,20.77
2022-12-12T19:57:49.250Z,21.53
2022-12-12T20:00:21.232Z,21.77
2022-12-12T20:02:51.905Z,22.53
2022-12-12T20:05:22.951Z,20.63
2022-12-12T20:07:53.701Z,20.77
2022-12-12T20:10:24.447Z,18.63
2022-12-12T20:12:58.727Z,20.30
2022-12-12T20:15:28.012Z,18.07
2022-12-12T20:18:00.665Z,22.20
2022-12-12T20:20:31.481Z,21.37
2022-12-12T20:23:02.355Z,20.77
2022-12-12T20:25:33.718Z,21.27
2022-12-12T20:28:04.438Z,19.70
2022-12-12T20:30:35.635Z,20.90
2022-12-12T20:33:06.487Z,23.00
2022-12-12T20:35:38.016Z,21.17
2022-12-12T20:38:09.372Z,22.43
2022-12-12T20:40:41.404Z,23.93
2022-12-12T20:43:12.309Z,21.10
2022-12-12T20:45:43.050Z,22.10
2022-12-12T20:48:13.661Z,23.60
2022-12-12T20:50:44.407Z,21.30
2022-12-12T20:53:15.738Z,21.03
2022-12-12T20:55:46.414Z,22.70
2022-12-12T20:58:17.126Z,22.93
2022-12-12T21:00:48.326Z,22.17
2022-12-12T21:03:19.061Z,22.23
2022-12-12T21:05:49.836Z,22.67
2022-12-12T21:08:21.761Z,21.77
2022-12-12T21:10:52.536Z,21.10
2022-12-12T21:13:23.504Z,22.97
2022-12-12T21:15:54.254Z,21.67
2022-12-12T21:18:25.431Z,23.10
2022-12-12T21:20:56.310Z,24.53
2022-12-12T21:23:27.088Z,22.27
2022-12-12T21:25:58.263Z,22.87
2022-12-12T21:28:28.923Z,22.77
2022-12-12T21:31:00.921Z,24.07
2022-12-12T21:33:31.643Z,23.93
2022-12-12T21:36:06.803Z,22.77
2022-12-12T21:38:37.596Z,22.23
2022-12-12T21:41:09.717Z,25.77
2022-12-12T21:43:41.171Z,25.20
2022-12-12T21:46:15.029Z,26.20
2022-12-12T21:48:46.017Z,25.73
2022-12-12T21:51:18.276Z,26.40
2022-12-12T21:53:49.107Z,26.87
2022-12-12T21:56:20.324Z,27.07
2022-12-12T21:58:50.991Z,26.07
2022-12-12T22:01:22.625Z,24.30
2022-12-12T22:03:53.339Z,25.03
2022-12-12T22:06:25.374Z,24.30
2022-12-12T22:08:58.883Z,24.70
2022-12-12T22:11:41.805Z,24.30
2022-12-12T22:14:04.352Z,23.77
2022-12-12T22:16:35.855Z,22.87
2022-12-12T22:19:09.213Z,23.90
2022-12-12T22:21:40.305Z,24.30
2022-12-12T22:24:11.633Z,23.87
2022-12-12T22:26:44.013Z,24.67
2022-12-12T22:29:16.736Z,34.23
2022-12-12T22:31:49.319Z,35.93
2022-12-12T22:34:22.309Z,31.00
2022-12-12T22:36:54.193Z,27.50
2022-12-12T22:39:26.394Z,30.93
2022-12-12T22:41:57.900Z,27.20
2022-12-12T22:44:29.266Z,25.97
2022-12-12T22:46:59.966Z,24.93
2022-12-12T22:49:30.916Z,25.33
2022-12-12T22:52:01.619Z,26.97
2022-12-12T22:54:32.259Z,25.20
2022-12-12T22:57:02.920Z,26.47
2022-12-12T22:59:33.573Z,28.30
2022-12-12T23:02:04.262Z,27.47
2022-12-12T23:04:35.233Z,24.87
2022-12-12T23:07:07.256Z,24.53
2022-12-12T23:09:38.332Z,25.00
2022-12-12T23:12:09.513Z,24.10
2022-12-12T23:14:40.397Z,25.63
2022-12-12T23:17:11.074Z,25.43
2022-12-12T23:19:42.105Z,26.77
2022-12-12T23:22:12.789Z,25.27
2022-12-12T23:24:43.598Z,26.17
2022-12-12T23:27:14.280Z,25.37
2022-12-12T23:29:45.306Z,26.33
2022-12-12T23:32:16.169Z,25.23
2022-12-12T23:34:46.976Z,26.03
2022-12-12T23:37:17.669Z,26.00
2022-12-12T23:39:50.030Z,26.47
2022-12-12T23:42:20.700Z,24.43
2022-12-12T23:44:52.382Z,24.60
2022-12-12T23:47:23.022Z,23.70
2022-12-12T23:49:53.710Z,23.67
2022-12-12T23:52:24.329Z,26.43
2022-12-12T23:54:55.085Z,24.57
2022-12-12T23:57:25.807Z,25.13
2022-12-12T23:59:56.477Z,24.60
